sensor_id;sensor_type;location;lat;lon;timestamp;temperature;humidity
41904;DHT22;27586;51.124;4.182;2024-03-06T00:01:42;8.20;99.90
41904;DHT22;27586;51.124;4.182;2024-03-06T00:04:08;8.20;99.90
41904;DHT22;27586;51.124;4.182;2024-03-06T00:06:34;8.20;99.90
41904;DHT22;27586;51.124;4.182;2024-03-06T00:09:00;8.20;99.90
41904;DHT22;27586;51.124;4.182;2024-03-06T00:11:27;8.20;99.90
41904;DHT22;27586;51.124;4.182;2024-03-06T00:13:54;8.10;99.90
41904;DHT22;27586;51.124;4.182;2024-03-06T00:16:20;8.10;99.90
41904;DHT22;27586;51.124;4.182;2024-03-06T00:18:46;8.10;99.90
41904;DHT22;27586;51.124;4.182;2024-03-06T00:21:12;8.10;99.90
41904;DHT22;27586;51.124;4.182;2024-03-06T00:23:38;8.10;99.90
41904;DHT22;27586;51.124;4.182;2024-03-06T00:26:04;8.20;99.90
41904;DHT22;27586;51.124;4.182;2024-03-06T00:28:30;8.20;99.90
41904;DHT22;27586;51.124;4.182;2024-03-06T00:30:56;8.20;99.90
41904;DHT22;27586;51.124;4.182;2024-03-06T00:33:22;8.10;99.90
41904;DHT22;27586;51.124;4.182;2024-03-06T00:35:48;8.10;99.90
41904;DHT22;27586;51.124;4.182;2024-03-06T00:38:14;8.20;99.90
41904;DHT22;27586;51.124;4.182;2024-03-06T00:40:39;8.20;99.90
41904;DHT22;27586;51.124;4.182;2024-03-06T00:43:05;8.10;99.90
41904;DHT22;27586;51.124;4.182;2024-03-06T00:45:31;8.20;99.90
41904;DHT22;27586;51.124;4.182;2024-03-06T00:47:57;8.10;99.90
41904;DHT22;27586;51.124;4.182;2024-03-06T00:50:23;8.00;99.90
41904;DHT22;27586;51.124;4.182;2024-03-06T00:52:49;7.90;99.90
41904;DHT22;27586;51.124;4.182;2024-03-06T00:55:15;7.90;99.90
41904;DHT22;27586;51.124;4.182;2024-03-06T00:57:40;7.80;99.90
41904;DHT22;27586;51.124;4.182;2024-03-06T01:00:06;7.80;99.90
41904;DHT22;27586;51.124;4.182;2024-03-06T01:02:39;7.80;99.90
41904;DHT22;27586;51.124;4.182;2024-03-06T01:05:06;7.80;99.90
41904;DHT22;27586;51.124;4.182;2024-03-06T01:07:33;7.80;99.90
41904;DHT22;27586;51.124;4.182;2024-03-06T01:10:00;7.80;99.90
41904;DHT22;27586;51.124;4.182;2024-03-06T01:12:27;7.70;99.90
41904;DHT22;27586;51.124;4.182;2024-03-06T01:14:52;7.70;99.90
41904;DHT22;27586;51.124;4.182;2024-03-06T01:17:18;7.60;99.90
41904;DHT22;27586;51.124;4.182;2024-03-06T01:19:44;7.60;99.90
41904;DHT22;27586;51.124;4.182;2024-03-06T01:22:10;7.60;99.90
41904;DHT22;27586;51.124;4.182;2024-03-06T01:24:36;7.50;99.90
41904;DHT22;27586;51.124;4.182;2024-03-06T01:27:02;7.50;99.90
41904;DHT22;27586;51.124;4.182;2024-03-06T01:29:31;7.40;99.90
41904;DHT22;27586;51.124;4.182;2024-03-06T01:31:57;7.30;99.90
41904;DHT22;27586;51.124;4.182;2024-03-06T01:34:22;7.30;99.90
41904;DHT22;27586;51.124;4.182;2024-03-06T01:36:48;7.20;99.90
41904;DHT22;27586;51.124;4.182;2024-03-06T01:39:14;7.20;99.90
41904;DHT22;27586;51.124;4.182;2024-03-06T01:41:46;7.10;99.90
41904;DHT22;27586;51.124;4.182;2024-03-06T01:44:13;7.00;99.90
41904;DHT22;27586;51.124;4.182;2024-03-06T01:46:39;7.00;99.90
41904;DHT22;27586;51.124;4.182;2024-03-06T01:49:04;7.00;99.90
41904;DHT22;27586;51.124;4.182;2024-03-06T01:51:31;6.90;99.90
41904;DHT22;27586;51.124;4.182;2024-03-06T01:53:58;6.90;99.90
41904;DHT22;27586;51.124;4.182;2024-03-06T01:56:27;7.00;99.90
41904;DHT22;27586;51.124;4.182;2024-03-06T01:58:53;7.00;99.90
41904;DHT22;27586;51.124;4.182;2024-03-06T02:01:20;6.80;99.90
41904;DHT22;27586;51.124;4.182;2024-03-06T02:03:47;6.80;99.90
41904;DHT22;27586;51.124;4.182;2024-03-06T02:06:14;6.80;99.90
41904;DHT22;27586;51.124;4.182;2024-03-06T02:08:41;6.80;99.90
41904;DHT22;27586;51.124;4.182;2024-03-06T02:11:06;6.80;99.90
41904;DHT22;27586;51.124;4.182;2024-03-06T02:13:33;6.80;99.90
41904;DHT22;27586;51.124;4.182;2024-03-06T02:15:59;6.80;99.90
41904;DHT22;27586;51.124;4.182;2024-03-06T02:18:25;6.80;99.90
41904;DHT22;27586;51.124;4.182;2024-03-06T02:20:51;6.80;99.90
41904;DHT22;27586;51.124;4.182;2024-03-06T02:23:16;6.70;99.90
41904;DHT22;27586;51.124;4.182;2024-03-06T02:25:47;6.60;99.90
41904;DHT22;27586;51.124;4.182;2024-03-06T02:28:13;6.60;99.90
41904;DHT22;27586;51.124;4.182;2024-03-06T02:30:39;6.40;99.90
41904;DHT22;27586;51.124;4.182;2024-03-06T02:33:05;6.40;99.90
41904;DHT22;27586;51.124;4.182;2024-03-06T02:35:37;6.30;99.90
41904;DHT22;27586;51.124;4.182;2024-03-06T02:38:05;6.30;99.90
41904;DHT22;27586;51.124;4.182;2024-03-06T02:40:31;6.30;99.90
41904;DHT22;27586;51.124;4.182;2024-03-06T02:42:57;6.30;99.90
41904;DHT22;27586;51.124;4.182;2024-03-06T02:45:23;6.30;99.90
41904;DHT22;27586;51.124;4.182;2024-03-06T02:47:49;6.20;99.90
41904;DHT22;27586;51.124;4.182;2024-03-06T02:50:15;6.20;99.90
41904;DHT22;27586;51.124;4.182;2024-03-06T02:52:41;6.20;99.90
41904;DHT22;27586;51.124;4.182;2024-03-06T02:55:07;6.10;99.90
41904;DHT22;27586;51.124;4.182;2024-03-06T02:57:32;6.00;99.90
41904;DHT22;27586;51.124;4.182;2024-03-06T02:59:59;6.10;99.90
41904;DHT22;27586;51.124;4.182;2024-03-06T03:02:25;6.00;99.90
41904;DHT22;27586;51.124;4.182;2024-03-06T03:04:53;6.10;99.90
41904;DHT22;27586;51.124;4.182;2024-03-06T03:07:19;6.10;99.90
41904;DHT22;27586;51.124;4.182;2024-03-06T03:09:46;6.10;99.90
41904;DHT22;27586;51.124;4.182;2024-03-06T03:12:13;6.20;99.90
41904;DHT22;27586;51.124;4.182;2024-03-06T03:14:40;6.20;99.90
41904;DHT22;27586;51.124;4.182;2024-03-06T03:17:06;6.20;99.90
41904;DHT22;27586;51.124;4.182;2024-03-06T03:19:32;6.10;99.90
41904;DHT22;27586;51.124;4.182;2024-03-06T03:21:58;6.10;99.90
41904;DHT22;27586;51.124;4.182;2024-03-06T03:24:24;6.10;99.90
41904;DHT22;27586;51.124;4.182;2024-03-06T03:26:52;6.10;99.90
41904;DHT22;27586;51.124;4.182;2024-03-06T03:29:18;6.00;99.90
41904;DHT22;27586;51.124;4.182;2024-03-06T03:31:44;5.90;99.90
41904;DHT22;27586;51.124;4.182;2024-03-06T03:34:10;5.80;99.90
41904;DHT22;27586;51.124;4.182;2024-03-06T03:36:42;5.80;99.90
41904;DHT22;27586;51.124;4.182;2024-03-06T03:39:09;5.90;99.90
41904;DHT22;27586;51.124;4.182;2024-03-06T03:41:45;5.90;99.90
41904;DHT22;27586;51.124;4.182;2024-03-06T03:44:14;6.00;99.90
41904;DHT22;27586;51.124;4.182;2024-03-06T03:46:40;6.00;99.90
41904;DHT22;27586;51.124;4.182;2024-03-06T03:49:06;5.90;99.90
41904;DHT22;27586;51.124;4.182;2024-03-06T03:51:31;5.90;99.90
41904;DHT22;27586;51.124;4.182;2024-03-06T03:53:57;5.80;99.90
41904;DHT22;27586;51.124;4.182;2024-03-06T03:56:23;5.80;99.90
41904;DHT22;27586;51.124;4.182;2024-03-06T03:58:48;5.80;99.90
41904;DHT22;27586;51.124;4.182;2024-03-06T04:01:14;5.80;99.90
41904;DHT22;27586;51.124;4.182;2024-03-06T04:03:40;5.80;99.90
41904;DHT22;27586;51.124;4.182;2024-03-06T04:06:08;5.70;99.90
41904;DHT22;27586;51.124;4.182;2024-03-06T04:08:34;5.70;99.90
41904;DHT22;27586;51.124;4.182;2024-03-06T04:10:59;5.60;99.90
41904;DHT22;27586;51.124;4.182;2024-03-06T04:13:25;5.60;99.90
41904;DHT22;27586;51.124;4.182;2024-03-06T04:15:51;5.60;99.90
41904;DHT22;27586;51.124;4.182;2024-03-06T04:18:17;5.60;99.90
41904;DHT22;27586;51.124;4.182;2024-03-06T04:20:42;5.50;99.90
41904;DHT22;27586;51.124;4.182;2024-03-06T04:23:09;5.50;99.90
41904;DHT22;27586;51.124;4.182;2024-03-06T04:25:34;5.50;99.90
41904;DHT22;27586;51.124;4.182;2024-03-06T04:28:00;5.60;99.90
41904;DHT22;27586;51.124;4.182;2024-03-06T04:30:27;5.50;99.90
41904;DHT22;27586;51.124;4.182;2024-03-06T04:32:53;5.50;99.90
41904;DHT22;27586;51.124;4.182;2024-03-06T04:35:19;5.40;99.90
41904;DHT22;27586;51.124;4.182;2024-03-06T04:37:45;5.30;99.90
41904;DHT22;27586;51.124;4.182;2024-03-06T04:40:10;5.30;99.90
41904;DHT22;27586;51.124;4.182;2024-03-06T04:42:36;5.30;99.90
41904;DHT22;27586;51.124;4.182;2024-03-06T04:45:03;5.30;99.90
41904;DHT22;27586;51.124;4.182;2024-03-06T04:47:29;5.40;99.90
41904;DHT22;27586;51.124;4.182;2024-03-06T04:49:55;5.30;99.90
41904;DHT22;27586;51.124;4.182;2024-03-06T04:52:20;5.40;99.90
41904;DHT22;27586;51.124;4.182;2024-03-06T04:54:46;5.30;99.90
41904;DHT22;27586;51.124;4.182;2024-03-06T04:57:12;5.30;99.90
41904;DHT22;27586;51.124;4.182;2024-03-06T04:59:37;5.30;99.90
41904;DHT22;27586;51.124;4.182;2024-03-06T05:02:03;5.30;99.90
41904;DHT22;27586;51.124;4.182;2024-03-06T05:04:29;5.30;99.90
41904;DHT22;27586;51.124;4.182;2024-03-06T05:06:54;5.40;99.90
41904;DHT22;27586;51.124;4.182;2024-03-06T05:09:21;5.30;99.90
41904;DHT22;27586;51.124;4.182;2024-03-06T05:11:46;5.30;99.90
41904;DHT22;27586;51.124;4.182;2024-03-06T05:14:16;5.30;99.90
41904;DHT22;27586;51.124;4.182;2024-03-06T05:16:41;5.20;99.90
41904;DHT22;27586;51.124;4.182;2024-03-06T05:19:07;5.30;99.90
41904;DHT22;27586;51.124;4.182;2024-03-06T05:21:33;5.30;99.90
41904;DHT22;27586;51.124;4.182;2024-03-06T05:24:00;5.20;99.90
41904;DHT22;27586;51.124;4.182;2024-03-06T05:26:26;5.10;99.90
41904;DHT22;27586;51.124;4.182;2024-03-06T05:28:52;5.00;99.90
41904;DHT22;27586;51.124;4.182;2024-03-06T05:31:19;5.10;99.90
41904;DHT22;27586;51.124;4.182;2024-03-06T05:33:47;4.90;99.90
41904;DHT22;27586;51.124;4.182;2024-03-06T05:36:13;4.90;99.90
41904;DHT22;27586;51.124;4.182;2024-03-06T05:38:40;4.90;99.90
41904;DHT22;27586;51.124;4.182;2024-03-06T05:41:06;4.90;99.90
41904;DHT22;27586;51.124;4.182;2024-03-06T05:43:32;4.90;99.90
41904;DHT22;27586;51.124;4.182;2024-03-06T05:45:57;4.90;99.90
41904;DHT22;27586;51.124;4.182;2024-03-06T05:48:23;4.90;99.90
41904;DHT22;27586;51.124;4.182;2024-03-06T05:50:49;4.80;99.90
41904;DHT22;27586;51.124;4.182;2024-03-06T05:53:15;4.90;99.90
41904;DHT22;27586;51.124;4.182;2024-03-06T05:55:41;4.90;99.90
41904;DHT22;27586;51.124;4.182;2024-03-06T05:58:06;4.90;99.90
41904;DHT22;27586;51.124;4.182;2024-03-06T06:00:32;4.90;99.90
41904;DHT22;27586;51.124;4.182;2024-03-06T06:02:58;4.80;99.90
41904;DHT22;27586;51.124;4.182;2024-03-06T06:05:24;4.80;99.90
41904;DHT22;27586;51.124;4.182;2024-03-06T06:07:51;4.80;99.90
41904;DHT22;27586;51.124;4.182;2024-03-06T06:10:17;4.70;99.90
41904;DHT22;27586;51.124;4.182;2024-03-06T06:12:42;4.50;99.90
41904;DHT22;27586;51.124;4.182;2024-03-06T06:15:08;4.50;99.90
41904;DHT22;27586;51.124;4.182;2024-03-06T06:17:35;4.50;99.90
41904;DHT22;27586;51.124;4.182;2024-03-06T06:20:00;4.60;99.90
41904;DHT22;27586;51.124;4.182;2024-03-06T06:22:29;4.70;99.90
41904;DHT22;27586;51.124;4.182;2024-03-06T06:24:55;4.70;99.90
41904;DHT22;27586;51.124;4.182;2024-03-06T06:27:21;4.80;99.90
41904;DHT22;27586;51.124;4.182;2024-03-06T06:29:47;4.70;99.90
41904;DHT22;27586;51.124;4.182;2024-03-06T06:32:12;4.70;99.90
41904;DHT22;27586;51.124;4.182;2024-03-06T06:34:38;4.70;99.90
41904;DHT22;27586;51.124;4.182;2024-03-06T06:37:03;4.60;99.90
41904;DHT22;27586;51.124;4.182;2024-03-06T06:39:29;4.60;99.90
41904;DHT22;27586;51.124;4.182;2024-03-06T06:41:55;4.60;99.90
41904;DHT22;27586;51.124;4.182;2024-03-06T06:44:21;4.70;99.90
41904;DHT22;27586;51.124;4.182;2024-03-06T06:46:46;4.80;99.90
41904;DHT22;27586;51.124;4.182;2024-03-06T06:49:12;4.80;99.90
41904;DHT22;27586;51.124;4.182;2024-03-06T06:51:38;4.80;99.90
41904;DHT22;27586;51.124;4.182;2024-03-06T06:54:03;4.90;99.90
41904;DHT22;27586;51.124;4.182;2024-03-06T06:56:31;4.90;99.90
41904;DHT22;27586;51.124;4.182;2024-03-06T06:58:56;5.00;99.90
41904;DHT22;27586;51.124;4.182;2024-03-06T07:01:22;5.10;99.90
41904;DHT22;27586;51.124;4.182;2024-03-06T07:03:48;5.20;99.90
41904;DHT22;27586;51.124;4.182;2024-03-06T07:06:13;5.30;99.90
41904;DHT22;27586;51.124;4.182;2024-03-06T07:08:39;5.30;99.90
41904;DHT22;27586;51.124;4.182;2024-03-06T07:11:05;5.40;99.90
41904;DHT22;27586;51.124;4.182;2024-03-06T07:13:30;5.50;99.90
41904;DHT22;27586;51.124;4.182;2024-03-06T07:15:56;5.60;99.90
41904;DHT22;27586;51.124;4.182;2024-03-06T07:18:22;5.60;99.90
41904;DHT22;27586;51.124;4.182;2024-03-06T07:20:47;5.70;99.90
41904;DHT22;27586;51.124;4.182;2024-03-06T07:23:13;5.80;99.90
41904;DHT22;27586;51.124;4.182;2024-03-06T07:25:39;5.90;99.90
41904;DHT22;27586;51.124;4.182;2024-03-06T07:28:05;6.00;99.90
41904;DHT22;27586;51.124;4.182;2024-03-06T07:30:30;6.10;99.90
41904;DHT22;27586;51.124;4.182;2024-03-06T07:32:56;6.20;99.90
41904;DHT22;27586;51.124;4.182;2024-03-06T07:35:23;6.30;99.90
41904;DHT22;27586;51.124;4.182;2024-03-06T07:37:49;6.50;99.90
41904;DHT22;27586;51.124;4.182;2024-03-06T07:40:14;6.60;99.90
41904;DHT22;27586;51.124;4.182;2024-03-06T07:42:40;6.70;99.90
41904;DHT22;27586;51.124;4.182;2024-03-06T07:45:06;6.80;99.90
41904;DHT22;27586;51.124;4.182;2024-03-06T07:47:34;6.90;99.90
41904;DHT22;27586;51.124;4.182;2024-03-06T07:50:00;6.90;99.90
41904;DHT22;27586;51.124;4.182;2024-03-06T07:52:25;7.00;99.90
41904;DHT22;27586;51.124;4.182;2024-03-06T07:54:51;7.10;99.90
41904;DHT22;27586;51.124;4.182;2024-03-06T07:57:16;7.10;99.90
41904;DHT22;27586;51.124;4.182;2024-03-06T07:59:43;7.20;99.90
41904;DHT22;27586;51.124;4.182;2024-03-06T08:02:09;7.20;99.90
41904;DHT22;27586;51.124;4.182;2024-03-06T08:04:35;7.20;99.90
41904;DHT22;27586;51.124;4.182;2024-03-06T08:07:01;7.30;99.90
41904;DHT22;27586;51.124;4.182;2024-03-06T08:09:27;7.30;99.90
41904;DHT22;27586;51.124;4.182;2024-03-06T08:11:54;7.30;99.90
41904;DHT22;27586;51.124;4.182;2024-03-06T08:14:20;7.30;99.90
41904;DHT22;27586;51.124;4.182;2024-03-06T08:16:45;7.20;99.90
41904;DHT22;27586;51.124;4.182;2024-03-06T08:19:11;7.20;99.90
41904;DHT22;27586;51.124;4.182;2024-03-06T08:21:37;7.30;99.90
41904;DHT22;27586;51.124;4.182;2024-03-06T08:24:03;7.40;99.90
41904;DHT22;27586;51.124;4.182;2024-03-06T08:26:29;7.50;99.90
41904;DHT22;27586;51.124;4.182;2024-03-06T08:28:54;7.60;99.90
41904;DHT22;27586;51.124;4.182;2024-03-06T08:31:20;7.80;99.90
41904;DHT22;27586;51.124;4.182;2024-03-06T08:33:47;7.90;99.90
41904;DHT22;27586;51.124;4.182;2024-03-06T08:36:13;7.90;99.90
41904;DHT22;27586;51.124;4.182;2024-03-06T08:38:39;7.90;99.90
41904;DHT22;27586;51.124;4.182;2024-03-06T08:41:06;8.10;99.90
41904;DHT22;27586;51.124;4.182;2024-03-06T08:43:32;8.30;99.90
41904;DHT22;27586;51.124;4.182;2024-03-06T08:45:57;8.40;99.90
41904;DHT22;27586;51.124;4.182;2024-03-06T08:48:23;8.50;99.90
41904;DHT22;27586;51.124;4.182;2024-03-06T08:50:49;8.60;99.90
41904;DHT22;27586;51.124;4.182;2024-03-06T08:53:16;8.70;99.90
41904;DHT22;27586;51.124;4.182;2024-03-06T08:55:42;8.60;99.90
41904;DHT22;27586;51.124;4.182;2024-03-06T08:58:08;8.70;99.90
41904;DHT22;27586;51.124;4.182;2024-03-06T09:00:34;8.80;99.90
41904;DHT22;27586;51.124;4.182;2024-03-06T09:03:00;8.90;99.90
41904;DHT22;27586;51.124;4.182;2024-03-06T09:05:26;8.90;99.90
41904;DHT22;27586;51.124;4.182;2024-03-06T09:07:51;8.90;99.90
41904;DHT22;27586;51.124;4.182;2024-03-06T09:10:17;9.00;99.90
41904;DHT22;27586;51.124;4.182;2024-03-06T09:12:44;9.10;99.90
41904;DHT22;27586;51.124;4.182;2024-03-06T09:15:11;9.10;99.90
41904;DHT22;27586;51.124;4.182;2024-03-06T09:17:37;9.30;99.90
41904;DHT22;27586;51.124;4.182;2024-03-06T09:20:04;9.50;99.90
41904;DHT22;27586;51.124;4.182;2024-03-06T09:22:40;9.60;99.90
41904;DHT22;27586;51.124;4.182;2024-03-06T09:25:06;9.80;99.90
41904;DHT22;27586;51.124;4.182;2024-03-06T09:27:32;9.80;99.90
41904;DHT22;27586;51.124;4.182;2024-03-06T09:29:58;10.00;99.90
41904;DHT22;27586;51.124;4.182;2024-03-06T09:32:23;10.10;99.90
41904;DHT22;27586;51.124;4.182;2024-03-06T09:34:51;10.20;99.90
41904;DHT22;27586;51.124;4.182;2024-03-06T09:37:18;10.30;99.90
41904;DHT22;27586;51.124;4.182;2024-03-06T09:39:44;10.30;99.90
41904;DHT22;27586;51.124;4.182;2024-03-06T09:42:13;10.30;99.90
41904;DHT22;27586;51.124;4.182;2024-03-06T09:44:39;10.40;99.90
41904;DHT22;27586;51.124;4.182;2024-03-06T09:47:06;10.60;99.90
41904;DHT22;27586;51.124;4.182;2024-03-06T09:49:33;10.70;99.90
41904;DHT22;27586;51.124;4.182;2024-03-06T09:52:00;10.70;99.90
41904;DHT22;27586;51.124;4.182;2024-03-06T09:54:29;10.80;99.90
41904;DHT22;27586;51.124;4.182;2024-03-06T09:56:55;10.90;99.90
41904;DHT22;27586;51.124;4.182;2024-03-06T09:59:23;10.80;99.90
41904;DHT22;27586;51.124;4.182;2024-03-06T10:01:57;10.90;99.90
41904;DHT22;27586;51.124;4.182;2024-03-06T10:04:27;10.90;99.90
41904;DHT22;27586;51.124;4.182;2024-03-06T10:06:54;11.00;99.90
41904;DHT22;27586;51.124;4.182;2024-03-06T10:09:20;11.00;99.90
41904;DHT22;27586;51.124;4.182;2024-03-06T10:11:46;11.20;99.90
41904;DHT22;27586;51.124;4.182;2024-03-06T10:14:13;11.30;99.90
41904;DHT22;27586;51.124;4.182;2024-03-06T10:16:55;11.20;99.90
41904;DHT22;27586;51.124;4.182;2024-03-06T10:19:28;11.20;99.90
41904;DHT22;27586;51.124;4.182;2024-03-06T10:21:57;11.20;99.90
41904;DHT22;27586;51.124;4.182;2024-03-06T10:24:24;11.30;99.90
41904;DHT22;27586;51.124;4.182;2024-03-06T10:26:51;11.20;99.90
41904;DHT22;27586;51.124;4.182;2024-03-06T10:29:18;11.10;99.90
41904;DHT22;27586;51.124;4.182;2024-03-06T10:32:02;11.20;99.90
41904;DHT22;27586;51.124;4.182;2024-03-06T10:34:28;11.30;99.90
41904;DHT22;27586;51.124;4.182;2024-03-06T10:37:02;11.60;99.90
41904;DHT22;27586;51.124;4.182;2024-03-06T10:39:33;11.90;99.90
41904;DHT22;27586;51.124;4.182;2024-03-06T10:42:05;12.00;99.90
41904;DHT22;27586;51.124;4.182;2024-03-06T10:44:34;12.20;99.90
41904;DHT22;27586;51.124;4.182;2024-03-06T10:47:01;12.40;99.90
41904;DHT22;27586;51.124;4.182;2024-03-06T10:49:28;12.40;99.90
41904;DHT22;27586;51.124;4.182;2024-03-06T10:51:59;12.50;99.90
41904;DHT22;27586;51.124;4.182;2024-03-06T10:54:30;12.40;99.90
41904;DHT22;27586;51.124;4.182;2024-03-06T10:56:58;12.40;99.90
41904;DHT22;27586;51.124;4.182;2024-03-06T10:59:25;12.50;99.90
41904;DHT22;27586;51.124;4.182;2024-03-06T11:01:54;12.60;99.90
41904;DHT22;27586;51.124;4.182;2024-03-06T11:04:27;12.50;99.90
41904;DHT22;27586;51.124;4.182;2024-03-06T11:07:00;12.50;99.90
41904;DHT22;27586;51.124;4.182;2024-03-06T11:09:33;12.50;99.90
41904;DHT22;27586;51.124;4.182;2024-03-06T11:12:00;12.60;99.90
41904;DHT22;27586;51.124;4.182;2024-03-06T11:14:28;12.30;99.90
41904;DHT22;27586;51.124;4.182;2024-03-06T11:17:11;12.30;99.90
41904;DHT22;27586;51.124;4.182;2024-03-06T11:28:27;12.90;99.90
41904;DHT22;27586;51.124;4.182;2024-03-06T11:31:00;12.80;99.90
41904;DHT22;27586;51.124;4.182;2024-03-06T11:33:36;13.00;99.90
41904;DHT22;27586;51.124;4.182;2024-03-06T11:39:07;13.30;99.90
41904;DHT22;27586;51.124;4.182;2024-03-06T11:41:49;13.50;99.90
41904;DHT22;27586;51.124;4.182;2024-03-06T11:44:19;13.70;99.90
41904;DHT22;27586;51.124;4.182;2024-03-06T11:46:59;13.90;99.90
41904;DHT22;27586;51.124;4.182;2024-03-06T11:49:27;14.10;99.90
41904;DHT22;27586;51.124;4.182;2024-03-06T11:52:03;14.20;99.90
41904;DHT22;27586;51.124;4.182;2024-03-06T11:54:31;14.20;99.90
41904;DHT22;27586;51.124;4.182;2024-03-06T11:56:59;14.20;99.90
41904;DHT22;27586;51.124;4.182;2024-03-06T11:59:26;14.20;99.90
41904;DHT22;27586;51.124;4.182;2024-03-06T12:01:57;14.20;99.90
41904;DHT22;27586;51.124;4.182;2024-03-06T12:04:24;14.20;99.90
41904;DHT22;27586;51.124;4.182;2024-03-06T12:06:50;13.90;99.90
41904;DHT22;27586;51.124;4.182;2024-03-06T12:09:16;13.80;99.90
41904;DHT22;27586;51.124;4.182;2024-03-06T12:11:42;13.70;99.90
41904;DHT22;27586;51.124;4.182;2024-03-06T12:14:19;13.60;99.90
41904;DHT22;27586;51.124;4.182;2024-03-06T12:16:55;13.60;99.90
41904;DHT22;27586;51.124;4.182;2024-03-06T12:19:22;13.80;99.90
41904;DHT22;27586;51.124;4.182;2024-03-06T12:21:48;13.90;99.90
41904;DHT22;27586;51.124;4.182;2024-03-06T12:24:16;14.10;99.90
41904;DHT22;27586;51.124;4.182;2024-03-06T12:26:44;14.30;99.90
41904;DHT22;27586;51.124;4.182;2024-03-06T12:29:11;14.10;99.90
41904;DHT22;27586;51.124;4.182;2024-03-06T12:31:41;14.00;99.90
41904;DHT22;27586;51.124;4.182;2024-03-06T12:34:07;13.60;99.90
41904;DHT22;27586;51.124;4.182;2024-03-06T12:36:33;13.70;99.90
41904;DHT22;27586;51.124;4.182;2024-03-06T12:39:02;14.00;99.90
41904;DHT22;27586;51.124;4.182;2024-03-06T12:41:28;14.30;99.90
41904;DHT22;27586;51.124;4.182;2024-03-06T12:43:54;14.60;99.90
41904;DHT22;27586;51.124;4.182;2024-03-06T12:46:22;14.90;99.90
41904;DHT22;27586;51.124;4.182;2024-03-06T12:48:47;15.00;99.90
41904;DHT22;27586;51.124;4.182;2024-03-06T12:51:13;14.90;99.90
41904;DHT22;27586;51.124;4.182;2024-03-06T12:53:39;14.90;99.90
41904;DHT22;27586;51.124;4.182;2024-03-06T12:56:05;14.70;99.90
41904;DHT22;27586;51.124;4.182;2024-03-06T12:58:31;14.50;99.90
41904;DHT22;27586;51.124;4.182;2024-03-06T13:00:57;14.10;99.90
41904;DHT22;27586;51.124;4.182;2024-03-06T13:03:24;14.10;99.90
41904;DHT22;27586;51.124;4.182;2024-03-06T13:05:49;14.20;99.90
41904;DHT22;27586;51.124;4.182;2024-03-06T13:08:15;13.90;99.90
41904;DHT22;27586;51.124;4.182;2024-03-06T13:10:42;14.20;99.90
41904;DHT22;27586;51.124;4.182;2024-03-06T13:13:08;14.10;99.90
41904;DHT22;27586;51.124;4.182;2024-03-06T13:15:34;14.20;99.90
41904;DHT22;27586;51.124;4.182;2024-03-06T13:18:00;14.30;99.90
41904;DHT22;27586;51.124;4.182;2024-03-06T13:20:32;14.50;99.90
41904;DHT22;27586;51.124;4.182;2024-03-06T13:22:58;14.40;99.90
41904;DHT22;27586;51.124;4.182;2024-03-06T13:25:24;14.00;99.90
41904;DHT22;27586;51.124;4.182;2024-03-06T13:27:50;13.90;99.90
41904;DHT22;27586;51.124;4.182;2024-03-06T13:30:17;13.90;99.90
41904;DHT22;27586;51.124;4.182;2024-03-06T13:32:43;13.80;99.90
41904;DHT22;27586;51.124;4.182;2024-03-06T13:35:11;13.80;99.90
41904;DHT22;27586;51.124;4.182;2024-03-06T13:37:39;13.70;99.90
41904;DHT22;27586;51.124;4.182;2024-03-06T13:40:07;13.60;99.90
41904;DHT22;27586;51.124;4.182;2024-03-06T13:42:34;13.50;99.90
41904;DHT22;27586;51.124;4.182;2024-03-06T13:45:01;13.50;99.90
41904;DHT22;27586;51.124;4.182;2024-03-06T13:47:27;13.40;99.90
41904;DHT22;27586;51.124;4.182;2024-03-06T13:49:52;13.40;99.90
41904;DHT22;27586;51.124;4.182;2024-03-06T13:52:18;13.50;99.90
41904;DHT22;27586;51.124;4.182;2024-03-06T13:54:46;13.40;99.90
41904;DHT22;27586;51.124;4.182;2024-03-06T13:57:11;13.30;99.90
41904;DHT22;27586;51.124;4.182;2024-03-06T13:59:37;13.30;99.90
41904;DHT22;27586;51.124;4.182;2024-03-06T14:02:03;13.20;99.90
41904;DHT22;27586;51.124;4.182;2024-03-06T14:04:29;13.10;99.90
41904;DHT22;27586;51.124;4.182;2024-03-06T14:06:56;13.00;99.90
41904;DHT22;27586;51.124;4.182;2024-03-06T14:09:25;13.00;99.90
41904;DHT22;27586;51.124;4.182;2024-03-06T14:11:51;12.90;99.90
41904;DHT22;27586;51.124;4.182;2024-03-06T14:14:18;12.90;99.90
41904;DHT22;27586;51.124;4.182;2024-03-06T14:16:44;13.00;99.90
41904;DHT22;27586;51.124;4.182;2024-03-06T14:19:10;13.00;99.90
41904;DHT22;27586;51.124;4.182;2024-03-06T14:21:37;12.70;99.90
41904;DHT22;27586;51.124;4.182;2024-03-06T14:24:04;12.70;99.90
41904;DHT22;27586;51.124;4.182;2024-03-06T14:26:32;12.80;99.90
41904;DHT22;27586;51.124;4.182;2024-03-06T14:28:59;12.90;99.90
41904;DHT22;27586;51.124;4.182;2024-03-06T14:31:25;12.80;99.90
41904;DHT22;27586;51.124;4.182;2024-03-06T14:33:50;12.80;99.90
41904;DHT22;27586;51.124;4.182;2024-03-06T14:36:17;12.70;99.90
41904;DHT22;27586;51.124;4.182;2024-03-06T14:38:43;12.70;99.90
41904;DHT22;27586;51.124;4.182;2024-03-06T14:41:12;12.70;99.90
41904;DHT22;27586;51.124;4.182;2024-03-06T14:43:37;12.80;99.90
41904;DHT22;27586;51.124;4.182;2024-03-06T14:46:07;12.90;99.90
41904;DHT22;27586;51.124;4.182;2024-03-06T14:48:34;12.90;99.90
41904;DHT22;27586;51.124;4.182;2024-03-06T14:51:03;12.80;99.90
41904;DHT22;27586;51.124;4.182;2024-03-06T14:53:28;12.90;99.90
41904;DHT22;27586;51.124;4.182;2024-03-06T14:55:55;12.90;99.90
41904;DHT22;27586;51.124;4.182;2024-03-06T14:58:21;12.90;99.90
41904;DHT22;27586;51.124;4.182;2024-03-06T15:00:47;13.00;99.90
41904;DHT22;27586;51.124;4.182;2024-03-06T15:03:13;12.80;99.90
41904;DHT22;27586;51.124;4.182;2024-03-06T15:05:38;12.70;99.90
41904;DHT22;27586;51.124;4.182;2024-03-06T15:08:04;12.70;99.90
41904;DHT22;27586;51.124;4.182;2024-03-06T15:10:30;12.70;99.90
41904;DHT22;27586;51.124;4.182;2024-03-06T15:12:59;12.60;99.90
41904;DHT22;27586;51.124;4.182;2024-03-06T15:15:24;12.60;99.90
41904;DHT22;27586;51.124;4.182;2024-03-06T15:17:50;12.70;99.90
41904;DHT22;27586;51.124;4.182;2024-03-06T15:20:16;12.50;99.90
41904;DHT22;27586;51.124;4.182;2024-03-06T15:22:43;12.50;99.90
41904;DHT22;27586;51.124;4.182;2024-03-06T15:25:10;12.40;99.90
41904;DHT22;27586;51.124;4.182;2024-03-06T15:27:40;12.50;99.90
41904;DHT22;27586;51.124;4.182;2024-03-06T15:30:07;12.50;99.90
41904;DHT22;27586;51.124;4.182;2024-03-06T15:32:34;12.20;99.90
41904;DHT22;27586;51.124;4.182;2024-03-06T15:35:00;12.20;99.90
41904;DHT22;27586;51.124;4.182;2024-03-06T15:37:26;12.20;99.90
41904;DHT22;27586;51.124;4.182;2024-03-06T15:39:55;12.20;99.90
41904;DHT22;27586;51.124;4.182;2024-03-06T15:42:21;12.20;99.90
41904;DHT22;27586;51.124;4.182;2024-03-06T15:44:48;12.10;99.90
41904;DHT22;27586;51.124;4.182;2024-03-06T15:47:14;12.10;99.90
41904;DHT22;27586;51.124;4.182;2024-03-06T15:49:40;12.10;99.90